Terminal Aerodrome Forecast
Issued by NWS

Home | Current Version | Previous Version | Text Only | Print | Product List | Glossary On
Versions: 1 2 3 4 5 6 7 8 9 10 11 12 13 14 15 16 17 18 19 20 21 22 23 24
000
FTUS45 KGJT 191734
TAFMTJ
TAF
KMTJ 191734Z 1918/2018 01003KT P6SM FEW110 FEW200
     FM191900 34008KT P6SM SCT110 SCT200
     FM200200 12005KT P6SM FEW140 SCT250
     FM201400 VRB03KT P6SM FEW120=

USA.gov is the U.S. government's official web portal to all federal, state and local government web resources and services.